sensor_id;sensor_type;location;lat;lon;timestamp;pressure;altitude;pressure_sealevel;temperature;humidity
7802;BME280;3945;48.952;9.506;2023-08-06T00:01:21;97193.09;;;15.74;99.87
7802;BME280;3945;48.952;9.506;2023-08-06T00:03:47;97188.53;;;15.74;99.94
7802;BME280;3945;48.952;9.506;2023-08-06T00:06:14;97197.09;;;15.76;100.00
7802;BME280;3945;48.952;9.506;2023-08-06T00:08:41;97186.84;;;15.78;100.00
7802;BME280;3945;48.952;9.506;2023-08-06T00:11:08;97187.97;;;15.77;100.00
7802;BME280;3945;48.952;9.506;2023-08-06T00:13:34;97188.25;;;15.76;100.00
7802;BME280;3945;48.952;9.506;2023-08-06T00:16:10;97185.84;;;15.74;100.00
7802;BME280;3945;48.952;9.506;2023-08-06T00:18:36;97183.75;;;15.71;100.00
7802;BME280;3945;48.952;9.506;2023-08-06T00:21:02;97174.91;;;15.71;100.00
7802;BME280;3945;48.952;9.506;2023-08-06T00:23:29;97174.91;;;15.71;100.00
7802;BME280;3945;48.952;9.506;2023-08-06T00:25:56;97173.81;;;15.72;100.00
7802;BME280;3945;48.952;9.506;2023-08-06T00:28:23;97175.69;;;15.71;100.00
7802;BME280;3945;48.952;9.506;2023-08-06T00:30:52;97175.41;;;15.73;100.00
7802;BME280;3945;48.952;9.506;2023-08-06T00:33:18;97177.00;;;15.74;100.00
7802;BME280;3945;48.952;9.506;2023-08-06T00:35:44;97170.56;;;15.75;100.00
7802;BME280;3945;48.952;9.506;2023-08-06T00:38:11;97164.41;;;15.74;100.00
7802;BME280;3945;48.952;9.506;2023-08-06T00:40:38;97171.38;;;15.75;100.00
7802;BME280;3945;48.952;9.506;2023-08-06T00:43:05;97152.59;;;15.75;100.00
7802;BME280;3945;48.952;9.506;2023-08-06T00:45:33;97159.03;;;15.74;100.00
7802;BME280;3945;48.952;9.506;2023-08-06T00:48:00;97159.84;;;15.75;100.00
7802;BME280;3945;48.952;9.506;2023-08-06T00:50:27;97159.84;;;15.75;100.00
7802;BME280;3945;48.952;9.506;2023-08-06T00:52:53;97153.38;;;15.76;100.00
7802;BME280;3945;48.952;9.506;2023-08-06T00:55:20;97151.50;;;15.76;100.00
7802;BME280;3945;48.952;9.506;2023-08-06T00:57:46;97144.25;;;15.77;100.00
7802;BME280;3945;48.952;9.506;2023-08-06T01:00:14;97149.09;;;15.75;100.00
7802;BME280;3945;48.952;9.506;2023-08-06T01:02:40;97148.00;;;15.76;100.00
7802;BME280;3945;48.952;9.506;2023-08-06T01:05:07;97150.69;;;15.76;100.00
7802;BME280;3945;48.952;9.506;2023-08-06T01:07:37;97141.56;;;15.77;100.00
7802;BME280;3945;48.952;9.506;2023-08-06T01:10:11;97141.56;;;15.77;100.00
7802;BME280;3945;48.952;9.506;2023-08-06T01:12:45;97138.56;;;15.78;100.00
7802;BME280;3945;48.952;9.506;2023-08-06T01:15:14;97134.00;;;15.79;100.00
7802;BME280;3945;48.952;9.506;2023-08-06T01:17:42;97127.53;;;15.80;100.00
7802;BME280;3945;48.952;9.506;2023-08-06T01:20:08;97126.19;;;15.82;100.00
7802;BME280;3945;48.952;9.506;2023-08-06T01:22:36;97126.19;;;15.82;100.00
7802;BME280;3945;48.952;9.506;2023-08-06T01:25:03;97135.03;;;15.83;100.00
7802;BME280;3945;48.952;9.506;2023-08-06T01:27:30;97135.31;;;15.81;100.00
7802;BME280;3945;48.952;9.506;2023-08-06T01:30:02;97129.38;;;15.84;100.00
7802;BME280;3945;48.952;9.506;2023-08-06T01:32:29;97119.41;;;15.85;100.00
7802;BME280;3945;48.952;9.506;2023-08-06T01:34:58;97113.56;;;15.83;100.00
7802;BME280;3945;48.952;9.506;2023-08-06T01:37:26;97110.59;;;15.84;100.00
7802;BME280;3945;48.952;9.506;2023-08-06T01:39:54;97110.88;;;15.83;100.00
7802;BME280;3945;48.952;9.506;2023-08-06T01:42:20;97105.56;;;15.78;100.00
7802;BME280;3945;48.952;9.506;2023-08-06T01:44:46;97096.03;;;15.72;100.00
7802;BME280;3945;48.952;9.506;2023-08-06T01:47:13;97102.00;;;15.69;100.00
7802;BME280;3945;48.952;9.506;2023-08-06T01:49:39;97093.44;;;15.67;100.00
7802;BME280;3945;48.952;9.506;2023-08-06T01:52:05;97092.13;;;15.64;100.00
7802;BME280;3945;48.952;9.506;2023-08-06T01:54:32;97094.59;;;15.60;100.00
7802;BME280;3945;48.952;9.506;2023-08-06T01:56:59;97096.78;;;15.58;100.00
7802;BME280;3945;48.952;9.506;2023-08-06T01:59:26;97097.38;;;15.55;100.00
7802;BME280;3945;48.952;9.506;2023-08-06T02:01:52;97102.75;;;15.55;100.00
7802;BME280;3945;48.952;9.506;2023-08-06T02:04:18;97099.28;;;15.55;100.00
7802;BME280;3945;48.952;9.506;2023-08-06T02:06:45;97095.50;;;15.56;100.00
7802;BME280;3945;48.952;9.506;2023-08-06T02:09:11;97103.22;;;15.57;100.00
7802;BME280;3945;48.952;9.506;2023-08-06T02:11:37;97095.19;;;15.57;100.00
7802;BME280;3945;48.952;9.506;2023-08-06T02:14:05;97096.78;;;15.58;100.00
7802;BME280;3945;48.952;9.506;2023-08-06T02:16:31;97102.94;;;15.59;100.00
7802;BME280;3945;48.952;9.506;2023-08-06T02:18:57;97087.66;;;15.59;100.00
7802;BME280;3945;48.952;9.506;2023-08-06T02:21:24;97081.19;;;15.60;100.00
7802;BME280;3945;48.952;9.506;2023-08-06T02:23:50;97080.41;;;15.60;100.00
7802;BME280;3945;48.952;9.506;2023-08-06T02:26:16;97077.72;;;15.60;100.00
7802;BME280;3945;48.952;9.506;2023-08-06T02:28:43;97079.31;;;15.61;100.00
7802;BME280;3945;48.952;9.506;2023-08-06T02:31:10;97063.75;;;15.63;100.00
7802;BME280;3945;48.952;9.506;2023-08-06T02:33:37;97062.94;;;15.63;100.00
7802;BME280;3945;48.952;9.506;2023-08-06T02:36:03;97059.66;;;15.66;100.00
7802;BME280;3945;48.952;9.506;2023-08-06T02:38:30;97055.69;;;15.63;100.00
7802;BME280;3945;48.952;9.506;2023-08-06T02:40:56;97059.66;;;15.66;100.00
7802;BME280;3945;48.952;9.506;2023-08-06T02:43:23;97057.25;;;15.64;100.00
7802;BME280;3945;48.952;9.506;2023-08-06T02:45:49;97048.41;;;15.63;100.00
7802;BME280;3945;48.952;9.506;2023-08-06T02:48:17;97051.41;;;15.62;100.00
7802;BME280;3945;48.952;9.506;2023-08-06T02:50:44;97051.69;;;15.60;100.00
7802;BME280;3945;48.952;9.506;2023-08-06T02:53:10;97041.78;;;15.61;100.00
7802;BME280;3945;48.952;9.506;2023-08-06T02:55:36;97046.84;;;15.63;100.00
7802;BME280;3945;48.952;9.506;2023-08-06T02:58:02;97041.47;;;15.63;100.00
7802;BME280;3945;48.952;9.506;2023-08-06T03:00:29;97044.66;;;15.65;100.00
7802;BME280;3945;48.952;9.506;2023-08-06T03:02:55;97043.03;;;15.63;100.00
7802;BME280;3945;48.952;9.506;2023-08-06T03:05:23;97041.16;;;15.64;100.00
7802;BME280;3945;48.952;9.506;2023-08-06T03:07:49;97037.69;;;15.63;100.00
7802;BME280;3945;48.952;9.506;2023-08-06T03:10:15;97034.22;;;15.63;100.00
7802;BME280;3945;48.952;9.506;2023-08-06T03:12:41;97033.13;;;15.64;100.00
7802;BME280;3945;48.952;9.506;2023-08-06T03:15:07;97031.53;;;15.63;100.00
7802;BME280;3945;48.952;9.506;2023-08-06T03:17:34;97032.31;;;15.63;100.00
7802;BME280;3945;48.952;9.506;2023-08-06T03:20:00;97025.69;;;15.61;100.00
7802;BME280;3945;48.952;9.506;2023-08-06T03:22:28;97020.81;;;15.63;99.87
7802;BME280;3945;48.952;9.506;2023-08-06T03:24:54;97018.13;;;15.63;99.81
7802;BME280;3945;48.952;9.506;2023-08-06T03:27:20;97010.84;;;15.63;99.65
7802;BME280;3945;48.952;9.506;2023-08-06T03:29:48;97017.03;;;15.64;99.84
7802;BME280;3945;48.952;9.506;2023-08-06T03:32:14;97008.78;;;15.60;99.58
7802;BME280;3945;48.952;9.506;2023-08-06T03:34:41;97012.56;;;15.59;99.87
7802;BME280;3945;48.952;9.506;2023-08-06T03:37:07;97015.22;;;15.59;99.60
7802;BME280;3945;48.952;9.506;2023-08-06T03:39:35;97010.97;;;15.58;99.17
7802;BME280;3945;48.952;9.506;2023-08-06T03:42:01;97013.63;;;15.58;98.31
7802;BME280;3945;48.952;9.506;2023-08-06T03:44:27;97009.97;;;15.54;98.14
7802;BME280;3945;48.952;9.506;2023-08-06T03:46:54;97010.97;;;15.58;98.85
7802;BME280;3945;48.952;9.506;2023-08-06T03:49:20;97017.91;;;15.59;98.26
7802;BME280;3945;48.952;9.506;2023-08-06T03:51:46;97025.16;;;15.59;96.92
7802;BME280;3945;48.952;9.506;2023-08-06T03:54:12;97016.59;;;15.57;96.40
7802;BME280;3945;48.952;9.506;2023-08-06T03:56:40;97014.25;;;15.55;96.67
7802;BME280;3945;48.952;9.506;2023-08-06T03:59:06;97010.50;;;15.51;96.49
7802;BME280;3945;48.952;9.506;2023-08-06T04:01:33;97015.88;;;15.51;97.75
7802;BME280;3945;48.952;9.506;2023-08-06T04:03:59;97010.81;;;15.50;98.51
7802;BME280;3945;48.952;9.506;2023-08-06T04:06:25;97001.66;;;15.51;99.20
7802;BME280;3945;48.952;9.506;2023-08-06T04:08:52;97005.94;;;15.52;99.02
7802;BME280;3945;48.952;9.506;2023-08-06T04:11:18;97006.75;;;15.52;99.00
7802;BME280;3945;48.952;9.506;2023-08-06T04:13:46;97007.13;;;15.46;98.07
7802;BME280;3945;48.952;9.506;2023-08-06T04:16:12;97018.44;;;15.43;97.79
7802;BME280;3945;48.952;9.506;2023-08-06T04:18:39;97012.09;;;15.39;97.00
7802;BME280;3945;48.952;9.506;2023-08-06T04:21:06;97018.03;;;15.36;97.58
7802;BME280;3945;48.952;9.506;2023-08-06T04:23:32;97017.03;;;15.32;98.18
7802;BME280;3945;48.952;9.506;2023-08-06T04:25:58;97016.50;;;15.30;98.03
7802;BME280;3945;48.952;9.506;2023-08-06T04:28:25;97010.16;;;15.26;97.57
7802;BME280;3945;48.952;9.506;2023-08-06T04:30:52;97008.84;;;15.23;97.38
7802;BME280;3945;48.952;9.506;2023-08-06T04:33:19;97007.84;;;15.19;97.74
7802;BME280;3945;48.952;9.506;2023-08-06T04:35:45;97017.78;;;15.18;98.01
7802;BME280;3945;48.952;9.506;2023-08-06T04:38:12;97021.81;;;15.16;98.01
7802;BME280;3945;48.952;9.506;2023-08-06T04:40:38;97015.16;;;15.13;98.07
7802;BME280;3945;48.952;9.506;2023-08-06T04:43:04;97020.03;;;15.11;98.67
7802;BME280;3945;48.952;9.506;2023-08-06T04:45:31;97024.38;;;15.07;97.89
7802;BME280;3945;48.952;9.506;2023-08-06T04:47:58;97019.28;;;15.06;99.44
7802;BME280;3945;48.952;9.506;2023-08-06T04:50:25;97020.69;;;15.03;99.32
7802;BME280;3945;48.952;9.506;2023-08-06T04:52:51;97021.25;;;15.00;99.32
7802;BME280;3945;48.952;9.506;2023-08-06T04:55:17;97026.44;;;14.97;98.94
7802;BME280;3945;48.952;9.506;2023-08-06T04:57:43;97020.56;;;14.95;98.94
7802;BME280;3945;48.952;9.506;2023-08-06T05:00:10;97019.84;;;14.89;99.31
7802;BME280;3945;48.952;9.506;2023-08-06T05:02:37;97023.59;;;14.88;99.61
7802;BME280;3945;48.952;9.506;2023-08-06T05:05:05;97025.84;;;14.81;99.58
7802;BME280;3945;48.952;9.506;2023-08-06T05:07:32;97021.84;;;14.78;100.00
7802;BME280;3945;48.952;9.506;2023-08-06T05:09:58;97024.03;;;14.76;100.00
7802;BME280;3945;48.952;9.506;2023-08-06T05:12:24;97022.72;;;14.74;100.00
7802;BME280;3945;48.952;9.506;2023-08-06T05:14:51;97023.81;;;14.73;100.00
7802;BME280;3945;48.952;9.506;2023-08-06T05:17:17;97028.09;;;14.74;100.00
7802;BME280;3945;48.952;9.506;2023-08-06T05:19:43;97040.69;;;14.73;100.00
7802;BME280;3945;48.952;9.506;2023-08-06T05:22:11;97036.63;;;14.76;100.00
7802;BME280;3945;48.952;9.506;2023-08-06T05:24:37;97041.91;;;14.81;100.00
7802;BME280;3945;48.952;9.506;2023-08-06T05:27:04;97039.44;;;14.84;100.00
7802;BME280;3945;48.952;9.506;2023-08-06T05:29:30;97045.81;;;14.89;100.00
7802;BME280;3945;48.952;9.506;2023-08-06T05:31:56;97040.19;;;14.90;100.00
7802;BME280;3945;48.952;9.506;2023-08-06T05:34:23;97048.13;;;14.95;100.00
7802;BME280;3945;48.952;9.506;2023-08-06T05:36:50;97044.09;;;14.98;100.00
7802;BME280;3945;48.952;9.506;2023-08-06T05:39:19;97043.50;;;15.01;100.00
7802;BME280;3945;48.952;9.506;2023-08-06T05:41:45;97049.38;;;15.03;100.00
7802;BME280;3945;48.952;9.506;2023-08-06T05:44:11;97042.13;;;15.03;100.00
7802;BME280;3945;48.952;9.506;2023-08-06T05:46:38;97033.81;;;15.05;100.00
7802;BME280;3945;48.952;9.506;2023-08-06T05:49:04;97036.69;;;15.08;100.00
7802;BME280;3945;48.952;9.506;2023-08-06T05:51:30;97041.16;;;15.13;100.00
7802;BME280;3945;48.952;9.506;2023-08-06T05:53:56;97033.91;;;15.13;100.00
7802;BME280;3945;48.952;9.506;2023-08-06T05:56:24;97039.00;;;15.15;100.00
7802;BME280;3945;48.952;9.506;2023-08-06T05:58:51;97041.59;;;15.20;100.00
7802;BME280;3945;48.952;9.506;2023-08-06T06:01:18;97042.53;;;15.29;100.00
7802;BME280;3945;48.952;9.506;2023-08-06T06:03:44;97045.16;;;15.34;99.54
7802;BME280;3945;48.952;9.506;2023-08-06T06:06:11;97033.81;;;15.37;99.62
7802;BME280;3945;48.952;9.506;2023-08-06T06:08:37;97035.91;;;15.40;99.71
7802;BME280;3945;48.952;9.506;2023-08-06T06:11:03;97039.09;;;15.42;100.00
7802;BME280;3945;48.952;9.506;2023-08-06T06:13:31;97041.78;;;15.42;100.00
7802;BME280;3945;48.952;9.506;2023-08-06T06:15:57;97039.88;;;15.43;100.00
7802;BME280;3945;48.952;9.506;2023-08-06T06:18:24;97040.19;;;15.41;100.00
7802;BME280;3945;48.952;9.506;2023-08-06T06:20:50;97037.81;;;15.40;100.00
7802;BME280;3945;48.952;9.506;2023-08-06T06:23:16;97034.31;;;15.39;100.00
7802;BME280;3945;48.952;9.506;2023-08-06T06:25:43;97035.59;;;15.42;100.00
7802;BME280;3945;48.952;9.506;2023-08-06T06:28:09;97034.75;;;15.46;100.00
7802;BME280;3945;48.952;9.506;2023-08-06T06:30:37;97035.19;;;15.53;100.00
7802;BME280;3945;48.952;9.506;2023-08-06T06:33:03;97039.66;;;15.58;100.00
7802;BME280;3945;48.952;9.506;2023-08-06T06:35:30;97037.78;;;15.58;100.00
7802;BME280;3945;48.952;9.506;2023-08-06T06:37:56;97036.69;;;15.59;100.00
7802;BME280;3945;48.952;9.506;2023-08-06T06:40:22;97038.56;;;15.59;100.00
7802;BME280;3945;48.952;9.506;2023-08-06T06:42:48;97046.63;;;15.59;100.00
7802;BME280;3945;48.952;9.506;2023-08-06T06:45:15;97035.00;;;15.63;100.00
7802;BME280;3945;48.952;9.506;2023-08-06T06:47:43;97048.41;;;15.63;100.00
7802;BME280;3945;48.952;9.506;2023-08-06T06:50:09;97043.75;;;15.55;100.00
7802;BME280;3945;48.952;9.506;2023-08-06T06:52:35;97050.03;;;15.46;100.00
7802;BME280;3945;48.952;9.506;2023-08-06T06:55:02;97055.06;;;15.34;100.00
7802;BME280;3945;48.952;9.506;2023-08-06T06:57:28;97056.44;;;15.31;100.00
7802;BME280;3945;48.952;9.506;2023-08-06T06:59:55;97054.03;;;15.30;100.00
7802;BME280;3945;48.952;9.506;2023-08-06T07:02:21;97057.25;;;15.32;100.00
7802;BME280;3945;48.952;9.506;2023-08-06T07:04:49;97058.31;;;15.31;100.00
7802;BME280;3945;48.952;9.506;2023-08-06T07:07:15;97061.56;;;15.28;100.00
7802;BME280;3945;48.952;9.506;2023-08-06T07:09:42;97064.25;;;15.28;100.00
7802;BME280;3945;48.952;9.506;2023-08-06T07:12:08;97067.81;;;15.23;100.00
7802;BME280;3945;48.952;9.506;2023-08-06T07:14:34;97066.22;;;15.22;100.00
7802;BME280;3945;48.952;9.506;2023-08-06T07:17:01;97071.59;;;15.22;100.00
7802;BME280;3945;48.952;9.506;2023-08-06T07:19:27;97068.69;;;15.18;100.00
7802;BME280;3945;48.952;9.506;2023-08-06T07:21:55;97068.69;;;15.18;100.00
7802;BME280;3945;48.952;9.506;2023-08-06T07:24:21;97070.31;;;15.19;100.00
7802;BME280;3945;48.952;9.506;2023-08-06T07:26:48;97063.19;;;15.10;100.00
7802;BME280;3945;48.952;9.506;2023-08-06T07:29:14;97063.47;;;15.08;100.00
7802;BME280;3945;48.952;9.506;2023-08-06T07:31:44;97072.84;;;15.11;100.00
7802;BME280;3945;48.952;9.506;2023-08-06T07:34:11;97064.00;;;15.10;100.00
7802;BME280;3945;48.952;9.506;2023-08-06T07:36:37;97067.09;;;15.17;100.00
7802;BME280;3945;48.952;9.506;2023-08-06T07:39:05;97065.13;;;15.23;100.00
7802;BME280;3945;48.952;9.506;2023-08-06T07:41:31;97068.34;;;15.25;100.00
7802;BME280;3945;48.952;9.506;2023-08-06T07:43:57;97068.34;;;15.25;100.00
7802;BME280;3945;48.952;9.506;2023-08-06T07:46:24;97064.25;;;15.28;100.00
7802;BME280;3945;48.952;9.506;2023-08-06T07:48:50;97067.16;;;15.31;100.00
7802;BME280;3945;48.952;9.506;2023-08-06T07:51:16;97064.47;;;15.31;100.00
7802;BME280;3945;48.952;9.506;2023-08-06T07:53:44;97073.91;;;15.29;100.00
7802;BME280;3945;48.952;9.506;2023-08-06T07:56:11;97063.47;;;15.27;100.00
7802;BME280;3945;48.952;9.506;2023-08-06T07:58:38;97064.34;;;15.22;100.00
7802;BME280;3945;48.952;9.506;2023-08-06T08:01:05;97063.81;;;15.20;100.00
7802;BME280;3945;48.952;9.506;2023-08-06T08:03:32;97067.81;;;15.23;100.00
7802;BME280;3945;48.952;9.506;2023-08-06T08:05:58;97066.44;;;15.26;100.00
7802;BME280;3945;48.952;9.506;2023-08-06T08:08:24;97062.25;;;15.19;100.00
7802;BME280;3945;48.952;9.506;2023-08-06T08:10:51;97063.81;;;15.20;100.00
7802;BME280;3945;48.952;9.506;2023-08-06T08:13:19;97076.75;;;15.18;100.00
7802;BME280;3945;48.952;9.506;2023-08-06T08:15:45;97072.22;;;15.14;100.00
7802;BME280;3945;48.952;9.506;2023-08-06T08:18:11;97061.50;;;15.14;100.00
7802;BME280;3945;48.952;9.506;2023-08-06T08:20:38;97059.72;;;15.09;100.00
7802;BME280;3945;48.952;9.506;2023-08-06T08:23:04;97061.41;;;15.05;100.00
7802;BME280;3945;48.952;9.506;2023-08-06T08:25:31;97068.22;;;14.98;100.00
7802;BME280;3945;48.952;9.506;2023-08-06T08:27:59;97065.28;;;14.94;100.00
7802;BME280;3945;48.952;9.506;2023-08-06T08:30:26;97066.38;;;14.93;100.00
7802;BME280;3945;48.952;9.506;2023-08-06T08:32:53;97058.63;;;14.92;100.00
7802;BME280;3945;48.952;9.506;2023-08-06T08:35:19;97064.28;;;14.90;100.00
7802;BME280;3945;48.952;9.506;2023-08-06T08:37:45;97067.19;;;14.94;100.00
7802;BME280;3945;48.952;9.506;2023-08-06T08:40:13;97066.53;;;15.02;100.00
7802;BME280;3945;48.952;9.506;2023-08-06T08:42:40;97066.25;;;15.03;100.00
7802;BME280;3945;48.952;9.506;2023-08-06T08:45:06;97059.72;;;15.09;100.00
7802;BME280;3945;48.952;9.506;2023-08-06T08:47:38;97067.47;;;15.11;100.00
7802;BME280;3945;48.952;9.506;2023-08-06T08:50:05;97064.44;;;15.17;100.00
7802;BME280;3945;48.952;9.506;2023-08-06T08:52:33;97057.81;;;15.29;100.00
7802;BME280;3945;48.952;9.506;2023-08-06T08:54:59;97062.78;;;15.35;100.00
7802;BME280;3945;48.952;9.506;2023-08-06T08:57:27;97056.84;;;15.38;100.00
7802;BME280;3945;48.952;9.506;2023-08-06T08:59:53;97064.63;;;15.40;100.00
7802;BME280;3945;48.952;9.506;2023-08-06T09:02:20;97053.09;;;15.39;100.00
7802;BME280;3945;48.952;9.506;2023-08-06T09:04:48;97048.25;;;15.41;100.00
7802;BME280;3945;48.952;9.506;2023-08-06T09:07:16;97048.53;;;15.40;100.00
7802;BME280;3945;48.952;9.506;2023-08-06T09:09:43;97058.16;;;15.41;100.00
7802;BME280;3945;48.952;9.506;2023-08-06T09:12:14;97063.31;;;15.37;99.34
7802;BME280;3945;48.952;9.506;2023-08-06T09:14:40;97055.34;;;15.32;99.10
7802;BME280;3945;48.952;9.506;2023-08-06T09:17:06;97061.50;;;15.33;100.00
7802;BME280;3945;48.952;9.506;2023-08-06T09:19:35;97055.88;;;15.34;100.00
7802;BME280;3945;48.952;9.506;2023-08-06T09:22:03;97056.44;;;15.31;100.00
7802;BME280;3945;48.952;9.506;2023-08-06T09:24:37;97043.75;;;15.37;100.00
7802;BME280;3945;48.952;9.506;2023-08-06T09:27:04;97053.09;;;15.39;100.00
7802;BME280;3945;48.952;9.506;2023-08-06T09:29:30;97059.31;;;15.35;100.00
7802;BME280;3945;48.952;9.506;2023-08-06T09:31:57;97068.94;;;15.36;100.00
7802;BME280;3945;48.952;9.506;2023-08-06T09:34:23;97082.53;;;15.26;100.00
7802;BME280;3945;48.952;9.506;2023-08-06T09:36:50;97077.97;;;15.26;100.00
7802;BME280;3945;48.952;9.506;2023-08-06T09:39:18;97075.50;;;15.30;100.00
7802;BME280;3945;48.952;9.506;2023-08-06T09:41:45;97089.78;;;15.25;100.00
7802;BME280;3945;48.952;9.506;2023-08-06T09:44:15;97094.91;;;15.21;100.00
7802;BME280;3945;48.952;9.506;2023-08-06T09:46:41;97095.28;;;15.15;100.00
7802;BME280;3945;48.952;9.506;2023-08-06T09:49:08;97106.50;;;15.17;100.00
7802;BME280;3945;48.952;9.506;2023-08-06T09:51:35;97094.72;;;15.18;100.00
7802;BME280;3945;48.952;9.506;2023-08-06T09:54:04;97092.81;;;15.18;100.00
7802;BME280;3945;48.952;9.506;2023-08-06T09:56:33;97086.38;;;15.19;100.00
7802;BME280;3945;48.952;9.506;2023-08-06T09:59:02;97086.28;;;15.24;100.00
7802;BME280;3945;48.952;9.506;2023-08-06T10:01:30;97093.75;;;15.28;100.00
7802;BME280;3945;48.952;9.506;2023-08-06T10:03:57;97093.59;;;15.38;100.00
7802;BME280;3945;48.952;9.506;2023-08-06T10:06:23;97096.41;;;15.46;100.00
7802;BME280;3945;48.952;9.506;2023-08-06T10:08:50;97086.97;;;15.49;100.00
7802;BME280;3945;48.952;9.506;2023-08-06T10:11:16;97086.69;;;15.50;100.00
7802;BME280;3945;48.952;9.506;2023-08-06T10:13:44;97095.91;;;15.44;100.00
7802;BME280;3945;48.952;9.506;2023-08-06T10:16:11;97100.56;;;15.39;100.00
7802;BME280;3945;48.952;9.506;2023-08-06T10:18:37;97093.31;;;15.39;100.00
7802;BME280;3945;48.952;9.506;2023-08-06T10:21:07;97096.50;;;15.41;100.00
7802;BME280;3945;48.952;9.506;2023-08-06T10:23:33;97093.31;;;15.39;100.00
7802;BME280;3945;48.952;9.506;2023-08-06T10:26:02;97084.97;;;15.41;100.00
7802;BME280;3945;48.952;9.506;2023-08-06T10:28:33;97096.19;;;15.43;100.00
7802;BME280;3945;48.952;9.506;2023-08-06T10:31:01;97094.97;;;15.35;100.00
7802;BME280;3945;48.952;9.506;2023-08-06T10:33:40;97101.22;;;15.31;100.00
7802;BME280;3945;48.952;9.506;2023-08-06T10:36:07;97103.53;;;15.18;100.00
7802;BME280;3945;48.952;9.506;2023-08-06T10:38:34;97094.72;;;15.18;100.00
7802;BME280;3945;48.952;9.506;2023-08-06T10:41:02;97100.13;;;15.13;100.00
7802;BME280;3945;48.952;9.506;2023-08-06T10:43:30;97105.00;;;15.11;100.00
7802;BME280;3945;48.952;9.506;2023-08-06T10:45:58;97094.75;;;15.13;100.00
7802;BME280;3945;48.952;9.506;2023-08-06T10:48:33;97093.19;;;15.12;100.00
7802;BME280;3945;48.952;9.506;2023-08-06T10:51:00;97092.50;;;15.20;100.00
7802;BME280;3945;48.952;9.506;2023-08-06T10:53:26;97104.72;;;15.12;100.00
7802;BME280;3945;48.952;9.506;2023-08-06T10:55:53;97096.16;;;15.10;100.00
7802;BME280;3945;48.952;9.506;2023-08-06T10:58:19;97106.88;;;15.10;100.00
7802;BME280;3945;48.952;9.506;2023-08-06T11:00:46;97111.19;;;15.06;100.00
7802;BME280;3945;48.952;9.506;2023-08-06T11:03:12;97099.19;;;15.04;100.00
7802;BME280;3945;48.952;9.506;2023-08-06T11:05:40;97090.38;;;15.03;100.00
7802;BME280;3945;48.952;9.506;2023-08-06T11:08:06;97105.13;;;15.01;100.00
7802;BME280;3945;48.952;9.506;2023-08-06T11:10:33;97104.59;;;14.99;99.64
7802;BME280;3945;48.952;9.506;2023-08-06T11:13:00;97110.03;;;14.94;99.17
7802;BME280;3945;48.952;9.506;2023-08-06T11:15:26;97113.53;;;14.94;99.20
7802;BME280;3945;48.952;9.506;2023-08-06T11:17:53;97116.72;;;14.96;99.14
7802;BME280;3945;48.952;9.506;2023-08-06T11:20:19;97133.59;;;14.97;99.73
7802;BME280;3945;48.952;9.506;2023-08-06T11:22:47;97135.25;;;14.93;98.48
7802;BME280;3945;48.952;9.506;2023-08-06T11:25:14;97136.38;;;14.87;97.81
7802;BME280;3945;48.952;9.506;2023-08-06T11:27:40;97135.75;;;14.76;96.48
7802;BME280;3945;48.952;9.506;2023-08-06T11:30:07;97135.84;;;14.66;96.94
7802;BME280;3945;48.952;9.506;2023-08-06T11:32:33;97149.31;;;14.61;97.53
7802;BME280;3945;48.952;9.506;2023-08-06T11:35:10;97138.94;;;14.54;97.66
7802;BME280;3945;48.952;9.506;2023-08-06T11:37:37;97141.09;;;14.52;97.38
7802;BME280;3945;48.952;9.506;2023-08-06T11:40:08;97146.19;;;14.54;98.77
7802;BME280;3945;48.952;9.506;2023-08-06T11:42:36;97141.31;;;14.56;98.30
7802;BME280;3945;48.952;9.506;2023-08-06T11:45:02;97131.41;;;14.56;99.12
7802;BME280;3945;48.952;9.506;2023-08-06T11:47:29;97139.94;;;14.58;97.98
7802;BME280;3945;48.952;9.506;2023-08-06T11:49:55;97138.88;;;14.59;97.84
7802;BME280;3945;48.952;9.506;2023-08-06T11:52:23;97142.91;;;14.57;97.79
7802;BME280;3945;48.952;9.506;2023-08-06T11:54:59;97140.22;;;14.57;97.55
7802;BME280;3945;48.952;9.506;2023-08-06T11:57:30;97147.78;;;14.55;97.97
7802;BME280;3945;48.952;9.506;2023-08-06T12:00:01;97154.75;;;14.51;98.88
7802;BME280;3945;48.952;9.506;2023-08-06T12:02:30;97162.59;;;14.47;99.13
7802;BME280;3945;48.952;9.506;2023-08-06T12:04:59;97174.13;;;14.42;99.37
7802;BME280;3945;48.952;9.506;2023-08-06T12:07:27;97177.06;;;14.41;99.07
7802;BME280;3945;48.952;9.506;2023-08-06T12:09:53;97169.66;;;14.33;98.75
7802;BME280;3945;48.952;9.506;2023-08-06T12:12:20;97179.38;;;14.24;98.67
7802;BME280;3945;48.952;9.506;2023-08-06T12:14:47;97178.06;;;14.21;99.95
7802;BME280;3945;48.952;9.506;2023-08-06T12:17:14;97192.50;;;14.20;100.00
7802;BME280;3945;48.952;9.506;2023-08-06T12:19:40;97199.00;;;14.14;100.00
7802;BME280;3945;48.952;9.506;2023-08-06T12:22:06;97196.56;;;14.18;100.00
7802;BME280;3945;48.952;9.506;2023-08-06T12:24:33;97204.91;;;14.11;100.00
7802;BME280;3945;48.952;9.506;2023-08-06T12:26:59;97200.66;;;14.05;100.00
7802;BME280;3945;48.952;9.506;2023-08-06T12:29:27;97209.59;;;13.95;100.00
7802;BME280;3945;48.952;9.506;2023-08-06T12:31:55;97223.78;;;13.96;100.00
7802;BME280;3945;48.952;9.506;2023-08-06T12:34:21;97237.69;;;13.93;100.00
7802;BME280;3945;48.952;9.506;2023-08-06T12:36:48;97232.94;;;13.85;100.00
7802;BME280;3945;48.952;9.506;2023-08-06T12:39:14;97234.31;;;13.82;100.00
7802;BME280;3945;48.952;9.506;2023-08-06T12:41:40;97234.31;;;13.82;100.00
7802;BME280;3945;48.952;9.506;2023-08-06T12:44:08;97230.03;;;13.81;100.00
7802;BME280;3945;48.952;9.506;2023-08-06T12:46:34;97240.75;;;13.76;100.00
7802;BME280;3945;48.952;9.506;2023-08-06T12:49:02;97247.47;;;13.74;100.00
7802;BME280;3945;48.952;9.506;2023-08-06T12:51:28;97245.06;;;13.72;100.00
7802;BME280;3945;48.952;9.506;2023-08-06T12:53:55;97242.38;;;13.72;100.00
7802;BME280;3945;48.952;9.506;2023-08-06T12:56:21;97251.47;;;13.71;100.00
7802;BME280;3945;48.952;9.506;2023-08-06T12:58:47;97249.34;;;13.73;100.00
7802;BME280;3945;48.952;9.506;2023-08-06T13:01:14;97249.56;;;13.77;100.00
7802;BME280;3945;48.952;9.506;2023-08-06T13:03:40;97256.78;;;13.81;100.00
7802;BME280;3945;48.952;9.506;2023-08-06T13:06:08;97261.06;;;13.82;100.00
7802;BME280;3945;48.952;9.506;2023-08-06T13:08:34;97264.22;;;13.84;100.00
7802;BME280;3945;48.952;9.506;2023-08-06T13:11:01;97254.84;;;13.87;100.00